Time;durP1;ratioP1;P1;durP2;ratioP2;P2;SDS_P1;SDS_P2;PMS_P1;PMS_P2;Temp;Humidity;BMP_temperature;BMP_pressure;BME280_temperature;BME280_humidity;BME280_pressure;Samples;Min_cycle;Max_cycle;Signal;HPM_P1;HPM_P2
2023/02/09 00:01:21;;;;;;;;;;;;;;;19.21;27.39;103602.18;105688;1286;73390;-80
2023/02/09 00:03:47;;;;;;;;;;;;;;;19.20;27.41;103605.38;105820;1290;75300;-80
2023/02/09 00:06:14;;;;;;;;;;;;;;;19.20;27.43;103607.35;105875;1286;61337;-80
2023/02/09 00:08:39;;;;;;;;;;;;;;;19.20;27.39;103606.10;105859;1286;61288;-80
2023/02/09 00:11:09;;;;;;;;;;;;;;;19.20;27.29;103609.33;105697;1286;61283;-80
2023/02/09 00:13:34;;;;;;;;;;;;;;;19.20;27.30;103606.46;105674;1286;75399;-80
2023/02/09 00:16:01;;;;;;;;;;;;;;;19.20;27.37;103607.18;105871;1286;61426;-80
2023/02/09 00:18:27;;;;;;;;;;;;;;;19.19;27.36;103606.47;105973;1286;61243;-80
2023/02/09 00:21:05;;;;;;;;;;;;;;;19.20;27.29;103606.12;105845;1289;61371;-80
2023/02/09 00:23:31;;;;;;;;;;;;;;;19.20;27.32;103606.47;105944;1285;75734;-80
2023/02/09 00:25:58;;;;;;;;;;;;;;;19.19;27.25;103607.20;105960;1285;61242;-80
2023/02/09 00:28:23;;;;;;;;;;;;;;;19.20;27.38;103608.25;105896;1286;61237;-80
2023/02/09 00:30:49;;;;;;;;;;;;;;;19.20;27.24;103606.64;105849;1285;61165;-80
2023/02/09 00:33:14;;;;;;;;;;;;;;;19.20;27.27;103604.14;105852;1286;61278;-80
2023/02/09 00:35:40;;;;;;;;;;;;;;;19.20;27.23;103604.33;105907;1286;59937;-81
2023/02/09 00:38:06;;;;;;;;;;;;;;;19.19;27.23;103603.08;105697;1289;61099;-81
2023/02/09 00:40:32;;;;;;;;;;;;;;;19.19;27.33;103600.59;105889;1284;61297;-81
2023/02/09 00:43:06;;;;;;;;;;;;;;;19.19;27.16;103597.00;105859;1285;61282;-81
2023/02/09 00:45:32;;;;;;;;;;;;;;;19.19;27.26;103594.87;105863;1286;74505;-81
2023/02/09 00:47:57;;;;;;;;;;;;;;;19.19;27.35;103589.69;105869;1285;61435;-81
2023/02/09 00:50:23;;;;;;;;;;;;;;;19.19;27.23;103587.02;105883;1284;61441;-81
2023/02/09 00:52:48;;;;;;;;;;;;;;;19.20;27.11;103585.05;105866;1286;61227;-81
2023/02/09 00:55:16;;;;;;;;;;;;;;;19.19;27.33;103580.42;105925;1286;61247;-81
2023/02/09 00:57:41;;;;;;;;;;;;;;;19.19;27.36;103582.02;105973;1285;61162;-81
2023/02/09 01:00:08;;;;;;;;;;;;;;;19.19;27.20;103582.19;105938;1286;61287;-81
2023/02/09 01:02:34;;;;;;;;;;;;;;;19.20;27.21;103583.27;105870;1284;61342;-81
2023/02/09 01:04:59;;;;;;;;;;;;;;;19.19;27.22;103587.36;105938;1284;61384;-81
2023/02/09 01:07:25;;;;;;;;;;;;;;;19.20;27.29;103588.96;105722;1291;61283;-81
2023/02/09 01:09:51;;;;;;;;;;;;;;;19.20;27.25;103585.05;105899;1284;61281;-81
2023/02/09 01:12:16;;;;;;;;;;;;;;;19.19;27.15;103582.37;105878;1284;61292;-81
2023/02/09 01:14:42;;;;;;;;;;;;;;;19.19;27.08;103576.84;106024;1285;61355;-81
2023/02/09 01:17:09;;;;;;;;;;;;;;;19.20;27.14;103571.83;105989;1286;61246;-81
2023/02/09 01:19:35;;;;;;;;;;;;;;;19.19;27.09;103563.81;105988;1286;74448;-81
2023/02/09 01:22:01;;;;;;;;;;;;;;;19.19;27.22;103560.78;105960;1286;61323;-81
2023/02/09 01:24:27;;;;;;;;;;;;;;;19.19;27.10;103562.02;105885;1284;61254;-81
2023/02/09 01:26:52;;;;;;;;;;;;;;;19.20;27.16;103559.69;105956;1285;61342;-81
2023/02/09 01:29:19;;;;;;;;;;;;;;;19.20;27.21;103558.79;105928;1285;60028;-81
2023/02/09 01:31:44;;;;;;;;;;;;;;;19.20;27.01;103558.80;105897;1285;59990;-81
2023/02/09 01:34:13;;;;;;;;;;;;;;;19.20;27.14;103554.51;105998;1286;61295;-81
2023/02/09 01:36:39;;;;;;;;;;;;;;;19.20;27.11;103554.34;105856;1285;62566;-81
2023/02/09 01:39:04;;;;;;;;;;;;;;;19.19;27.00;103546.13;105953;1286;61318;-81
2023/02/09 01:41:30;;;;;;;;;;;;;;;19.19;27.12;103542.74;105934;1286;61263;-81
2023/02/09 01:43:59;;;;;;;;;;;;;;;19.19;26.96;103537.92;105870;1286;61410;-81
2023/02/09 01:46:25;;;;;;;;;;;;;;;19.19;27.04;103536.67;105850;1286;61265;-81
2023/02/09 01:48:53;;;;;;;;;;;;;;;19.19;27.16;103539.34;105869;1285;61237;-81
2023/02/09 01:51:19;;;;;;;;;;;;;;;19.19;26.97;103538.29;105859;1286;75219;-81
2023/02/09 01:53:44;;;;;;;;;;;;;;;19.19;27.15;103539.54;105886;1286;61241;-80
2023/02/09 01:56:11;;;;;;;;;;;;;;;19.18;27.03;103536.69;105698;1285;61298;-80
2023/02/09 01:58:37;;;;;;;;;;;;;;;19.18;27.10;103535.81;105881;1286;61305;-81
2023/02/09 02:01:03;;;;;;;;;;;;;;;19.18;27.00;103536.71;105850;1286;61702;-81
2023/02/09 02:03:29;;;;;;;;;;;;;;;19.18;27.04;103535.10;105878;1285;61317;-81
2023/02/09 02:05:56;;;;;;;;;;;;;;;19.18;27.04;103537.23;105863;1286;61262;-81
2023/02/09 02:08:41;;;;;;;;;;;;;;;19.18;27.08;103540.45;105891;1286;61292;-81
2023/02/09 02:11:09;;;;;;;;;;;;;;;19.17;26.98;103541.35;105841;1288;74648;-81
2023/02/09 02:13:34;;;;;;;;;;;;;;;19.17;27.13;103541.55;105863;1286;61230;-81
2023/02/09 02:16:05;;;;;;;;;;;;;;;19.17;27.02;103542.42;105892;1285;61370;-81
2023/02/09 02:18:50;;;;;;;;;;;;;;;19.18;27.08;103540.98;105939;1286;72678;-81
2023/02/09 02:21:19;;;;;;;;;;;;;;;19.17;26.97;103543.84;105839;1291;75021;-81
2023/02/09 02:23:47;;;;;;;;;;;;;;;19.17;27.14;103551.34;105851;1286;61167;-81
2023/02/09 02:26:19;;;;;;;;;;;;;;;19.18;27.00;103554.91;105952;1285;61231;-81
2023/02/09 02:29:04;;;;;;;;;;;;;;;19.18;27.01;103556.88;105861;1284;73568;-81
2023/02/09 02:31:37;;;;;;;;;;;;;;;19.18;27.08;103557.23;105810;1285;75333;-81
2023/02/09 02:34:02;;;;;;;;;;;;;;;19.17;26.97;103553.13;105957;1285;61215;-81
2023/02/09 02:36:54;;;;;;;;;;;;;;;19.17;27.00;103554.56;105982;1286;61230;-81
2023/02/09 02:39:28;;;;;;;;;;;;;;;19.17;27.01;103554.04;105940;1284;71598;-80
2023/02/09 02:44:42;;;;;;;;;;;;;;;19.17;27.07;103543.67;105956;1286;61158;-80
2023/02/09 02:47:11;;;;;;;;;;;;;;;19.17;26.92;103543.50;105854;1285;61315;-80
2023/02/09 02:49:38;;;;;;;;;;;;;;;19.17;27.07;103544.21;105855;1286;72977;-80
2023/02/09 02:52:05;;;;;;;;;;;;;;;19.17;26.99;103548.85;105875;1286;75361;-80
2023/02/09 02:54:32;;;;;;;;;;;;;;;19.17;26.96;103542.42;105769;1286;61196;-81
2023/02/09 02:56:59;;;;;;;;;;;;;;;19.17;26.98;103542.07;105862;1286;61267;-81
2023/02/09 02:59:37;;;;;;;;;;;;;;;19.17;26.96;103538.85;105701;1286;72357;-80
2023/02/09 03:02:10;;;;;;;;;;;;;;;19.16;26.90;103533.87;105936;1284;75709;-81
2023/02/09 03:04:36;;;;;;;;;;;;;;;19.16;26.97;103535.49;105832;1286;61080;-81
2023/02/09 03:07:08;;;;;;;;;;;;;;;19.16;27.05;103532.45;105933;1286;61288;-81
2023/02/09 03:09:33;;;;;;;;;;;;;;;19.16;26.97;103529.77;105860;1286;73400;-81
2023/02/09 03:12:22;;;;;;;;;;;;;;;19.16;26.98;103526.56;105939;1286;61349;-81
2023/02/09 03:15:07;;;;;;;;;;;;;;;19.16;26.86;103521.56;105856;1286;61057;-81
2023/02/09 03:17:33;;;;;;;;;;;;;;;19.16;27.12;103520.50;105947;1286;60083;-81
2023/02/09 03:20:05;;;;;;;;;;;;;;;19.16;26.85;103519.60;105935;1286;61279;-81
2023/02/09 03:22:35;;;;;;;;;;;;;;;19.16;26.96;103518.71;105944;1285;75460;-81
2023/02/09 03:25:07;;;;;;;;;;;;;;;19.16;27.09;103514.96;105860;1286;61434;-81
2023/02/09 03:27:32;;;;;;;;;;;;;;;19.16;26.85;103514.06;105859;1285;61177;-80
2023/02/09 03:29:59;;;;;;;;;;;;;;;19.15;27.03;103509.79;105945;1286;61337;-80
2023/02/09 03:32:25;;;;;;;;;;;;;;;19.16;27.03;103505.33;105881;1286;61176;-82
2023/02/09 03:34:52;;;;;;;;;;;;;;;19.15;26.97;103510.15;105948;1286;61314;-82
2023/02/09 03:37:17;;;;;;;;;;;;;;;19.15;26.95;103516.58;105879;1286;61442;-81
2023/02/09 03:39:43;;;;;;;;;;;;;;;19.15;26.95;103518.01;105873;1286;61246;-82
2023/02/09 03:42:09;;;;;;;;;;;;;;;19.15;26.91;103516.39;105860;1286;61388;-81
2023/02/09 03:44:35;;;;;;;;;;;;;;;19.15;26.91;103519.63;105920;1286;61330;-81
2023/02/09 03:47:01;;;;;;;;;;;;;;;19.15;26.89;103516.95;105988;1286;61260;-81
2023/02/09 03:49:28;;;;;;;;;;;;;;;19.14;26.90;103519.64;105865;1286;61381;-81
2023/02/09 03:51:53;;;;;;;;;;;;;;;19.15;27.08;103516.05;105963;1285;72223;-81
2023/02/09 03:54:20;;;;;;;;;;;;;;;19.14;26.91;103511.08;105683;1286;61161;-81
2023/02/09 03:56:46;;;;;;;;;;;;;;;19.14;26.85;103506.07;105968;1285;61298;-81
2023/02/09 03:59:12;;;;;;;;;;;;;;;19.14;26.93;103509.12;105861;1286;61236;-81
2023/02/09 04:01:37;;;;;;;;;;;;;;;19.13;27.00;103509.66;105879;1288;60050;-81
2023/02/09 04:04:03;;;;;;;;;;;;;;;19.14;26.94;103506.26;105870;1286;61308;-81
2023/02/09 04:06:30;;;;;;;;;;;;;;;19.13;26.88;103508.41;105900;1286;61266;-81
2023/02/09 04:08:57;;;;;;;;;;;;;;;19.13;26.85;103508.95;105886;1286;61923;-81
2023/02/09 04:11:22;;;;;;;;;;;;;;;19.13;26.82;103509.48;105874;1286;61321;-82
2023/02/09 04:13:48;;;;;;;;;;;;;;;19.13;26.97;103505.20;105948;1291;61251;-81
2023/02/09 04:16:14;;;;;;;;;;;;;;;19.13;26.91;103506.09;105929;1286;61310;-81
2023/02/09 04:18:40;;;;;;;;;;;;;;;19.13;27.04;103502.88;105852;1286;61176;-81
2023/02/09 04:21:05;;;;;;;;;;;;;;;19.12;26.93;103505.02;105856;1286;61342;-81
2023/02/09 04:23:31;;;;;;;;;;;;;;;19.12;26.90;103502.89;105958;1286;61300;-81
2023/02/09 04:25:56;;;;;;;;;;;;;;;19.13;26.94;103505.92;105927;1290;72595;-81
2023/02/09 04:28:23;;;;;;;;;;;;;;;19.12;26.94;103509.50;105817;1286;74261;-81
2023/02/09 04:30:53;;;;;;;;;;;;;;;19.12;26.85;103508.24;105857;1286;61385;-81
2023/02/09 04:33:18;;;;;;;;;;;;;;;19.12;26.98;103508.98;105847;1286;60933;-81
2023/02/09 04:35:44;;;;;;;;;;;;;;;19.13;26.90;103513.41;105873;1286;61164;-81
2023/02/09 04:38:10;;;;;;;;;;;;;;;19.12;26.83;103516.64;105837;1286;61700;-81
2023/02/09 04:40:35;;;;;;;;;;;;;;;19.12;26.84;103514.33;105879;1286;61751;-81
2023/02/09 04:43:01;;;;;;;;;;;;;;;19.12;26.92;103511.30;105941;1286;61275;-81
2023/02/09 04:45:26;;;;;;;;;;;;;;;19.12;26.88;103509.52;105915;1286;61319;-81
2023/02/09 04:47:52;;;;;;;;;;;;;;;19.12;26.77;103508.80;105907;1286;72239;-81
2023/02/09 04:50:18;;;;;;;;;;;;;;;19.11;26.89;103506.30;105853;1286;61324;-81
2023/02/09 04:52:43;;;;;;;;;;;;;;;19.11;26.91;103502.92;105945;1286;61281;-81
2023/02/09 04:55:09;;;;;;;;;;;;;;;19.11;26.86;103508.81;105857;1284;61307;-81
2023/02/09 05:00:19;;;;;;;;;;;;;;;19.11;26.94;103511.13;105943;1286;72625;-81
2023/02/09 05:02:45;;;;;;;;;;;;;;;19.10;26.84;103504.89;105929;1286;61275;-81
2023/02/09 05:05:10;;;;;;;;;;;;;;;19.10;26.76;103502.39;105881;1286;61092;-81
2023/02/09 05:07:36;;;;;;;;;;;;;;;19.10;26.87;103502.22;105884;1285;61356;-81
2023/02/09 05:10:02;;;;;;;;;;;;;;;19.10;26.87;103502.92;105845;1286;61271;-81
2023/02/09 05:12:28;;;;;;;;;;;;;;;19.10;26.65;103502.22;105844;1286;61252;-81
2023/02/09 05:14:53;;;;;;;;;;;;;;;19.10;26.82;103505.45;105895;1286;61362;-81
2023/02/09 05:17:19;;;;;;;;;;;;;;;19.09;26.83;103505.08;105953;1286;61275;-82
2023/02/09 05:19:48;;;;;;;;;;;;;;;19.09;26.72;103507.44;105863;1286;61263;-81
2023/02/09 05:22:14;;;;;;;;;;;;;;;19.07;26.70;103514.59;105856;1284;72312;-81
2023/02/09 05:24:40;;;;;;;;;;;;;;;19.06;26.75;103513.71;105859;1291;61291;-81
2023/02/09 05:27:05;;;;;;;;;;;;;;;19.05;26.54;103515.34;105903;1286;61442;-82
2023/02/09 05:29:31;;;;;;;;;;;;;;;19.04;26.62;103519.30;105888;1286;61420;-82
2023/02/09 05:31:56;;;;;;;;;;;;;;;19.02;26.48;103515.59;105954;1286;61265;-81
2023/02/09 05:34:22;;;;;;;;;;;;;;;18.99;26.50;103521.36;105855;1286;73493;-81
2023/02/09 05:36:47;;;;;;;;;;;;;;;18.95;26.58;103519.11;105947;1286;61322;-81
2023/02/09 05:39:13;;;;;;;;;;;;;;;18.89;26.48;103520.46;105706;1286;61404;-82
2023/02/09 05:44:23;;;;;;;;;;;;;;;18.79;26.60;103528.14;106022;1286;72526;-81
2023/02/09 05:46:48;;;;;;;;;;;;;;;18.74;26.58;103529.82;105994;1285;60042;-81
2023/02/09 05:49:14;;;;;;;;;;;;;;;18.69;26.61;103532.05;105942;1286;61123;-81
2023/02/09 05:51:39;;;;;;;;;;;;;;;18.63;26.66;103527.88;105762;1286;61429;-82
2023/02/09 05:54:05;;;;;;;;;;;;;;;18.57;26.44;103528.52;105939;1286;59542;-82
2023/02/09 05:56:30;;;;;;;;;;;;;;;18.52;26.48;103535.04;105844;1291;72511;-82
2023/02/09 05:58:55;;;;;;;;;;;;;;;18.47;26.45;103537.61;105858;1288;60528;-83
2023/02/09 06:01:21;;;;;;;;;;;;;;;18.42;26.42;103539.46;105833;1289;61310;-81
2023/02/09 06:03:46;;;;;;;;;;;;;;;18.37;26.30;103535.27;105843;1286;61229;-81
2023/02/09 06:06:12;;;;;;;;;;;;;;;18.33;26.30;103533.56;105677;1286;63052;-80
2023/02/09 06:08:37;;;;;;;;;;;;;;;18.28;26.34;103530.26;105916;1286;61409;-82
2023/02/09 06:11:04;;;;;;;;;;;;;;;18.25;26.25;103529.77;105882;1286;61263;-81
2023/02/09 06:13:30;;;;;;;;;;;;;;;18.24;26.24;103530.67;105769;1286;61449;-79
2023/02/09 06:15:56;;;;;;;;;;;;;;;18.24;26.15;103524.09;106435;1285;59107;-80
2023/02/09 06:18:21;;;;;;;;;;;;;;;18.26;26.19;103517.80;105849;1292;59551;-80
2023/02/09 06:20:47;;;;;;;;;;;;;;;18.29;26.05;103515.44;105810;1291;61284;-80
2023/02/09 06:23:12;;;;;;;;;;;;;;;18.32;25.98;103513.43;105901;1286;60776;-80
2023/02/09 06:25:38;;;;;;;;;;;;;;;18.36;25.97;103514.61;105976;1286;61148;-80
2023/02/09 06:28:04;;;;;;;;;;;;;;;18.40;26.01;103516.66;105841;1290;61215;-80
2023/02/09 06:30:29;;;;;;;;;;;;;;;18.45;26.03;103514.27;105902;1288;61729;-80
2023/02/09 06:32:55;;;;;;;;;;;;;;;18.49;25.85;103513.50;105830;1288;59754;-79
2023/02/09 06:35:21;;;;;;;;;;;;;;;18.53;25.84;103509.50;105876;1291;61288;-80
2023/02/09 06:37:46;;;;;;;;;;;;;;;18.59;25.65;103513.15;105988;1285;61364;-80
2023/02/09 06:40:11;;;;;;;;;;;;;;;18.63;25.66;103514.50;105847;1286;61413;-80
2023/02/09 06:42:43;;;;;;;;;;;;;;;18.67;25.76;103514.42;105868;1285;61272;-80
2023/02/09 06:45:10;;;;;;;;;;;;;;;18.71;25.77;103516.67;105763;1285;75442;-79
2023/02/09 06:47:36;;;;;;;;;;;;;;;18.75;25.61;103519.98;105845;1284;59932;-79
2023/02/09 06:50:01;;;;;;;;;;;;;;;18.78;25.50;103520.30;105859;1289;60199;-80
2023/02/09 06:52:27;;;;;;;;;;;;;;;18.80;25.67;103525.61;105696;1291;61298;-80
2023/02/09 06:54:52;;;;;;;;;;;;;;;18.81;25.50;103525.59;105876;1289;61240;-80
2023/02/09 06:57:18;;;;;;;;;;;;;;;18.74;25.48;103526.79;105881;1290;59622;-81
2023/02/09 06:59:43;;;;;;;;;;;;;;;18.70;25.56;103526.86;105758;1285;61144;-80
2023/02/09 07:02:09;;;;;;;;;;;;;;;18.69;25.62;103530.63;105441;1286;681914;-80
2023/02/09 07:04:35;;;;;;;;;;;;;;;18.67;25.70;103533.88;105875;1289;61257;-80
2023/02/09 07:07:00;;;;;;;;;;;;;;;18.66;25.73;103532.64;106005;1286;61413;-81
2023/02/09 07:09:26;;;;;;;;;;;;;;;18.67;25.75;103535.84;105956;1286;59875;-80
2023/02/09 07:11:51;;;;;;;;;;;;;;;18.68;25.79;103537.77;105565;1286;61140;-80
2023/02/09 07:14:17;;;;;;;;;;;;;;;18.71;25.92;103532.73;105467;1286;61365;-81
2023/02/09 07:16:43;;;;;;;;;;;;;;;18.73;25.84;103539.48;105851;1291;60246;-80
2023/02/09 07:19:08;;;;;;;;;;;;;;;18.76;26.06;103546.37;106018;1289;59544;-79
2023/02/09 07:21:34;;;;;;;;;;;;;;;18.77;26.47;103546.52;105881;1291;61492;-80
2023/02/09 07:23:59;;;;;;;;;;;;;;;18.76;26.58;103548.15;105998;1290;61326;-80
2023/02/09 07:26:25;;;;;;;;;;;;;;;18.75;26.72;103550.48;105883;1289;61464;-81
2023/02/09 07:28:50;;;;;;;;;;;;;;;18.75;26.89;103549.60;105989;1289;61268;-81
2023/02/09 07:31:16;;;;;;;;;;;;;;;18.76;27.38;103551.71;105720;1291;61441;-80
2023/02/09 07:33:41;;;;;;;;;;;;;;;18.78;27.63;103553.31;105907;1292;60141;-80
2023/02/09 07:36:08;;;;;;;;;;;;;;;18.79;27.87;103561.15;105907;1286;61289;-80
2023/02/09 07:38:33;;;;;;;;;;;;;;;18.79;28.23;103562.92;105882;1286;60485;-81
2023/02/09 07:40:59;;;;;;;;;;;;;;;18.81;28.34;103561.27;105974;1286;59834;-81
2023/02/09 07:43:25;;;;;;;;;;;;;;;18.84;28.45;103561.40;105885;1288;60603;-79
2023/02/09 07:45:51;;;;;;;;;;;;;;;18.86;28.50;103562.25;105584;1285;61340;-79
2023/02/09 07:48:17;;;;;;;;;;;;;;;18.88;28.48;103561.52;105519;1289;61399;-79
2023/02/09 07:50:49;;;;;;;;;;;;;;;18.90;28.78;103565.79;105532;1286;59442;-79
2023/02/09 07:53:14;;;;;;;;;;;;;;;18.92;28.49;103562.54;105366;1285;74459;-81
2023/02/09 07:55:40;;;;;;;;;;;;;;;18.89;28.50;103563.47;105536;1286;61312;-81
2023/02/09 07:58:05;;;;;;;;;;;;;;;18.79;28.51;103562.91;105447;1286;60828;-82
2023/02/09 08:00:31;;;;;;;;;;;;;;;18.68;28.32;103558.30;105877;1285;61278;-81
2023/02/09 08:02:56;;;;;;;;;;;;;;;18.56;28.30;103564.75;105887;1286;59039;-80
2023/02/09 08:05:26;;;;;;;;;;;;;;;18.42;28.02;103562.65;105925;1288;59863;-81
2023/02/09 08:07:52;;;;;;;;;;;;;;;18.31;27.96;103563.20;105849;1286;75214;-81
2023/02/09 08:10:18;;;;;;;;;;;;;;;18.29;27.89;103561.27;105958;1287;60328;-82
2023/02/09 08:12:58;;;;;;;;;;;;;;;18.26;27.83;103562.55;105858;1289;61464;-81
2023/02/09 08:15:24;;;;;;;;;;;;;;;18.25;27.81;103564.16;105795;1286;72320;-82
2023/02/09 08:17:52;;;;;;;;;;;;;;;18.28;27.82;103569.65;105966;1286;61298;-81
2023/02/09 08:20:20;;;;;;;;;;;;;;;18.33;27.92;103566.73;105925;1284;61017;-81
2023/02/09 08:22:47;;;;;;;;;;;;;;;18.38;27.86;103563.25;105851;1286;61913;-81
2023/02/09 08:25:15;;;;;;;;;;;;;;;18.44;27.86;103565.84;105893;1285;72650;-81
2023/02/09 08:27:42;;;;;;;;;;;;;;;18.49;27.93;103569.15;105868;1286;74496;-81
2023/02/09 08:30:08;;;;;;;;;;;;;;;18.53;27.81;103571.56;105731;1291;59970;-82
2023/02/09 08:32:33;;;;;;;;;;;;;;;18.58;27.81;103567.57;105660;1286;59584;-82
2023/02/09 08:35:01;;;;;;;;;;;;;;;18.63;27.75;103562.84;106006;1285;59583;-82
2023/02/09 08:37:26;;;;;;;;;;;;;;;18.67;27.74;103563.31;105860;1289;61218;-81
2023/02/09 08:39:53;;;;;;;;;;;;;;;18.70;27.77;103563.95;105907;1286;59381;-82
2023/02/09 08:42:18;;;;;;;;;;;;;;;18.73;27.68;103568.37;105987;1288;61457;-82
2023/02/09 08:44:44;;;;;;;;;;;;;;;18.76;27.68;103572.96;105899;1286;61614;-81
2023/02/09 08:47:09;;;;;;;;;;;;;;;18.78;27.58;103566.86;105947;1291;59866;-81
2023/02/09 08:49:35;;;;;;;;;;;;;;;18.81;27.50;103563.79;105727;1285;73463;-81
2023/02/09 08:52:00;;;;;;;;;;;;;;;18.83;27.65;103561.43;105982;1285;61477;-82
2023/02/09 08:54:26;;;;;;;;;;;;;;;18.86;27.41;103566.20;105891;1284;61521;-81
2023/02/09 08:56:52;;;;;;;;;;;;;;;18.88;27.45;103567.94;105867;1286;61078;-81
2023/02/09 08:59:18;;;;;;;;;;;;;;;18.91;27.42;103569.16;105806;1287;61470;-81
2023/02/09 09:01:52;;;;;;;;;;;;;;;18.93;27.43;103560.73;105960;1286;59912;-82
2023/02/09 09:04:19;;;;;;;;;;;;;;;18.96;27.49;103558.17;105594;1286;62276;-81
2023/02/09 09:06:45;;;;;;;;;;;;;;;18.88;27.19;103557.60;105990;1286;72458;-81
2023/02/09 09:09:11;;;;;;;;;;;;;;;18.68;27.11;103561.51;105781;1286;61372;-81
2023/02/09 09:11:36;;;;;;;;;;;;;;;18.47;27.09;103557.74;105949;1286;61201;-81
2023/02/09 09:14:02;;;;;;;;;;;;;;;18.41;27.44;103561.06;105830;1285;60663;-80
2023/02/09 09:16:27;;;;;;;;;;;;;;;18.37;27.44;103555.25;105904;1286;60224;-81
2023/02/09 09:18:53;;;;;;;;;;;;;;;18.36;27.46;103557.92;105976;1285;73808;-81
2023/02/09 09:21:18;;;;;;;;;;;;;;;18.37;27.43;103557.20;105927;1290;59509;-81
2023/02/09 09:23:44;;;;;;;;;;;;;;;18.45;27.84;103555.48;105919;1285;59687;-81
2023/02/09 09:26:09;;;;;;;;;;;;;;;18.58;28.44;103549.90;105916;1284;59356;-82
2023/02/09 09:28:35;;;;;;;;;;;;;;;18.68;28.49;103548.13;105952;1286;61446;-82
2023/02/09 09:31:05;;;;;;;;;;;;;;;18.72;28.35;103542.88;105860;1289;61297;-82
2023/02/09 09:33:31;;;;;;;;;;;;;;;18.75;28.27;103543.01;106238;1286;76731;-82
2023/02/09 09:36:00;;;;;;;;;;;;;;;18.79;28.12;103539.02;106318;1286;59648;-82
2023/02/09 09:38:26;;;;;;;;;;;;;;;18.82;27.92;103533.77;105848;1285;61346;-82
2023/02/09 09:40:51;;;;;;;;;;;;;;;18.84;27.90;103527.68;105911;1288;61359;-82
2023/02/09 09:43:26;;;;;;;;;;;;;;;18.87;27.73;103525.31;105877;1286;60253;-82
2023/02/09 09:45:52;;;;;;;;;;;;;;;18.90;27.76;103519.92;105982;1285;61037;-82
2023/02/09 09:48:24;;;;;;;;;;;;;;;18.92;27.61;103515.06;106031;1286;61355;-81
2023/02/09 09:50:51;;;;;;;;;;;;;;;18.95;27.52;103513.05;105914;1286;72485;-81
2023/02/09 09:53:19;;;;;;;;;;;;;;;18.97;27.45;103511.77;106003;1285;74445;-82
2023/02/09 09:55:44;;;;;;;;;;;;;;;18.97;27.53;103512.11;105895;1285;61220;-83
2023/02/09 09:58:11;;;;;;;;;;;;;;;18.98;27.64;103509.95;106042;1286;61301;-82
2023/02/09 10:00:38;;;;;;;;;;;;;;;18.99;27.53;103510.30;105897;1286;59564;-83
2023/02/09 10:03:03;;;;;;;;;;;;;;;18.82;27.26;103504.34;105848;1285;61301;-83
2023/02/09 10:05:29;;;;;;;;;;;;;;;18.39;27.23;103504.22;105995;1285;61270;-83
2023/02/09 10:08:18;;;;;;;;;;;;;;;18.09;27.19;103500.05;105800;1286;61830;-81
2023/02/09 10:10:45;;;;;;;;;;;;;;;17.97;27.56;103504.02;105606;1286;72460;-81
2023/02/09 10:13:30;;;;;;;;;;;;;;;17.99;27.56;103495.23;105859;1284;75725;-81
2023/02/09 10:15:56;;;;;;;;;;;;;;;18.05;27.85;103493.01;106027;1285;60987;-81
2023/02/09 10:18:25;;;;;;;;;;;;;;;18.09;27.88;103488.48;105880;1286;61300;-81
2023/02/09 10:20:52;;;;;;;;;;;;;;;18.14;27.83;103486.80;105876;1285;73993;-81
2023/02/09 10:23:19;;;;;;;;;;;;;;;18.19;27.69;103486.19;105880;1285;75556;-81
2023/02/09 10:25:56;;;;;;;;;;;;;;;18.24;27.80;103489.66;106027;1285;60681;-81
2023/02/09 10:28:23;;;;;;;;;;;;;;;18.30;27.80;103486.55;105973;1286;61001;-80
2023/02/09 10:30:52;;;;;;;;;;;;;;;18.32;27.80;103482.06;106542;1285;73301;-81
2023/02/09 10:33:17;;;;;;;;;;;;;;;18.31;27.88;103486.36;106217;1286;75310;-82
2023/02/09 10:35:43;;;;;;;;;;;;;;;18.30;27.91;103484.94;105888;1285;61362;-81
2023/02/09 10:38:29;;;;;;;;;;;;;;;18.28;27.77;103488.17;106012;1286;61236;-80
2023/02/09 10:40:55;;;;;;;;;;;;;;;18.26;27.75;103486.06;105979;1286;72639;-81
2023/02/09 10:43:28;;;;;;;;;;;;;;;18.28;27.75;103483.35;105938;1285;59533;-81
2023/02/09 10:45:57;;;;;;;;;;;;;;;18.30;27.58;103478.52;106050;1284;61740;-81
2023/02/09 10:48:23;;;;;;;;;;;;;;;18.32;27.73;103475.98;105971;1286;61155;-81
2023/02/09 10:50:50;;;;;;;;;;;;;;;18.34;27.50;103475.77;105987;1286;61239;-81
2023/02/09 10:53:26;;;;;;;;;;;;;;;18.35;27.47;103477.72;105868;1286;61237;-83
2023/02/09 10:56:02;;;;;;;;;;;;;;;18.34;27.46;103472.91;105998;1288;61033;-82
2023/02/09 10:58:29;;;;;;;;;;;;;;;18.33;27.26;103474.35;105838;1285;61360;-81
2023/02/09 11:01:13;;;;;;;;;;;;;;;18.30;27.21;103468.00;105871;1286;72741;-81
2023/02/09 11:03:54;;;;;;;;;;;;;;;18.26;27.03;103460.58;106025;1285;75649;-82
2023/02/09 11:06:20;;;;;;;;;;;;;;;18.18;26.98;103456.27;105861;1286;61246;-81
2023/02/09 11:08:46;;;;;;;;;;;;;;;18.06;27.12;103458.77;105842;1286;59429;-81
2023/02/09 11:11:22;;;;;;;;;;;;;;;17.98;26.94;103455.88;105985;1286;60395;-81
2023/02/09 11:13:48;;;;;;;;;;;;;;;17.95;27.08;103453.44;105928;1285;76531;-81
2023/02/09 11:16:29;;;;;;;;;;;;;;;17.93;26.98;103446.69;105920;1288;59618;-81
2023/02/09 11:18:56;;;;;;;;;;;;;;;17.88;26.88;103447.79;105980;1286;60583;-81
2023/02/09 11:21:42;;;;;;;;;;;;;;;17.84;26.67;103443.60;105907;1286;73427;-81
2023/02/09 11:24:26;;;;;;;;;;;;;;;17.82;26.66;103444.86;106027;1286;75525;-81
2023/02/09 11:26:56;;;;;;;;;;;;;;;17.84;26.63;103439.50;105973;1286;61119;-81
2023/02/09 11:29:36;;;;;;;;;;;;;;;17.84;26.54;103439.66;105998;1285;61063;-80
2023/02/09 11:32:07;;;;;;;;;;;;;;;17.87;26.51;103438.36;105954;1285;72528;-81
2023/02/09 11:34:36;;;;;;;;;;;;;;;17.88;26.44;103442.45;105893;1284;75836;-81
2023/02/09 11:37:20;;;;;;;;;;;;;;;17.89;26.45;103432.83;105906;1289;61338;-80
2023/02/09 11:39:51;;;;;;;;;;;;;;;17.89;26.50;103425.87;105996;1285;61410;-80
2023/02/09 11:45:22;;;;;;;;;;;;;;;17.88;26.27;103420.72;105980;1284;75583;-81
2023/02/09 11:48:07;;;;;;;;;;;;;;;17.92;26.28;103419.42;105904;1285;59960;-81
2023/02/09 11:50:39;;;;;;;;;;;;;;;17.97;26.08;103413.86;105676;1286;61247;-81
2023/02/09 11:53:06;;;;;;;;;;;;;;;18.01;26.22;103413.42;105969;1285;71257;-81
2023/02/09 11:55:37;;;;;;;;;;;;;;;18.03;26.10;103406.26;105941;1284;74834;-81
2023/02/09 11:58:08;;;;;;;;;;;;;;;18.03;26.04;103409.28;105995;1285;60857;-82
2023/02/09 12:00:37;;;;;;;;;;;;;;;18.03;25.90;103404.11;105860;1285;60212;-81
2023/02/09 12:03:06;;;;;;;;;;;;;;;17.96;25.76;103406.39;105917;1285;72352;-81
2023/02/09 12:05:31;;;;;;;;;;;;;;;17.86;25.80;103402.59;106028;1285;74938;-81
2023/02/09 12:08:03;;;;;;;;;;;;;;;17.79;25.74;103403.77;106023;1286;59571;-83
2023/02/09 12:10:34;;;;;;;;;;;;;;;17.72;25.77;103405.48;106186;1285;61195;-81
2023/02/09 12:13:18;;;;;;;;;;;;;;;17.51;25.63;103400.47;105909;1286;73172;-81
2023/02/09 12:15:44;;;;;;;;;;;;;;;17.41;25.79;103396.50;105983;1285;74515;-81
2023/02/09 12:18:18;;;;;;;;;;;;;;;17.38;25.78;103392.63;105887;1289;60951;-81
2023/02/09 12:20:48;;;;;;;;;;;;;;;17.40;25.87;103396.52;106021;1286;61255;-82
2023/02/09 12:23:33;;;;;;;;;;;;;;;17.44;25.83;103392.73;106003;1285;72327;-80
2023/02/09 12:26:02;;;;;;;;;;;;;;;17.49;25.87;103386.42;105997;1286;74719;-82
2023/02/09 12:28:30;;;;;;;;;;;;;;;17.55;25.80;103385.98;106003;1286;60090;-81
2023/02/09 12:30:57;;;;;;;;;;;;;;;17.62;25.67;103381.95;106005;1285;61164;-82
2023/02/09 12:33:43;;;;;;;;;;;;;;;17.69;25.77;103382.36;105993;1285;73024;-81
2023/02/09 12:36:29;;;;;;;;;;;;;;;17.78;25.83;103384.02;105337;1291;74738;-81
2023/02/09 12:38:58;;;;;;;;;;;;;;;17.83;25.87;103390.16;104777;1299;61228;-81
2023/02/09 12:41:36;;;;;;;;;;;;;;;17.86;25.77;103389.04;104655;1301;61082;-82